Tiempo atmosférico en la estación meteorológica de Manresa, Barcelona (291 m.)



Fecha
DESCASC
Temp. máxima en grados centígrados (hora)
DESCASC
Temp. mínima en grados centígrados (hora)
DESCASC
Temp. media en grados centígrados
DESCASC
Racha de viento máxima en m/sg (hora)
DESCASC
Velocidad máxima media en intervalos de 10 minutos(hora)
DESCASC
Precipitaciones diarias en mm
DESCASC
Precipitaciones de 00:00 a 06:00 en mm
DESCASC
Precipitaciones de 06:00 a 12:00 en mm
DESCASC
Precipitaciones de 12:00 a 18:00 en mm
DESCASC
Precipitaciones de 18:00 a 24:00 en mm
DESCASC
16-01-2020 14.8 (16:10) -1.5 (08:00) 6.7 6.11 (16:30) 3.33 (16:30) 0 0 0 0 0
15-01-2020 12.6 (16:20) -2.8 (08:50) 4.9 4.17 (18:40) 2.22 (18:40) 0 0 0 0 0
14-01-2020 13 (17:00) -2.8 (09:00) 5.1 3.61 (11:00) 2.22 (11:00) 0 0 0 0 0
13-01-2020 9.5 (16:20) -3.1 (08:20) 3.2 3.06 (04:20) 1.94 (01:10) 0 0 0 0 0
12-01-2020 10.5 (16:30) -3.2 (-00:0) 3.6 5 (19:00) 2.78 (19:00) 0 0 0 0 0
11-01-2020 8.4 (16:00) -0.1 (00:00) 4.1 4.72 (10:00) 2.78 (08:50) 0 0 0 0 0
10-01-2020 9.8 (14:50) 3.3 (00:00) 6.6 10 (16:10) 5.28 (16:10) 7 0.2 6 0.8 0
09-01-2020 13.7 (16:20) -0.5 (-00:0) 6.6 5.28 (17:00) 2.78 (17:10) 0 0 0 0 0
08-01-2020 15.3 (16:50) -1.7 (-00:0) 6.8 3.33 (18:20) 1.67 (18:20) 0 0 0 0 0
07-01-2020 10.5 (15:30) -1.7 (-00:0) 4.4 4.44 (14:50) 2.5 (15:00) 0 0 0 0 0
06-01-2020 12.9 (16:50) -2.2 (-00:0) 5.3 2.5 (16:20) 1.39 (16:00) 0 0 0 0 0
05-01-2020 11 (15:50) -1.8 (-00:0) 4.6 5.28 (00:10) 3.06 (00:10) 0 0 0 0 0
04-01-2020 9.6 (15:00) -1.4 (-00:0) 4.1 6.11 (17:20) 3.06 (16:00) 0 0 0 0 0
03-01-2020 6.3 (16:30) -0.4 (00:00) 3 3.61 (13:20) 2.22 (07:50) 0 0 0 0 0
02-01-2020 5.4 (14:20) -0.1 (00:00) 2.7 3.61 (15:20) 2.22 (15:20) 0 0 0 0 0
01-01-2020 10.5 (16:00) 2.3 (00:00) 6.4 4.17 (01:40) 2.22 (01:30) 0 0 0 0 0
31-12-2019 8.2 (16:50) 3.4 (00:00) 5.8 4.72 (18:50) 2.78 (18:50) 0 0 0 0 0
30-12-2019 12 (15:10) 3.7 (00:00) 7.9 5 (18:30) 3.06 (18:20) 0 0 0 0 0
29-12-2019 11.2 (14:30) 3.8 (00:00) 7.5 4.17 (14:10) 2.5 (14:00) 0 0 0 0 0
28-12-2019 13.2 (16:00) -0.1 (00:00) 6.5 4.72 (17:00) 2.78 (18:00) 0 0 0 0 0
27-12-2019 9 (16:30) 2.7 (00:00) 5.9 4.72 (14:10) 3.06 (15:20) 0 0 0 0 0
26-12-2019 13 (16:10) 3 (00:00) 8 5.56 (17:40) 3.33 (17:40) 0 0 0 0 0
25-12-2019 14.5 (16:20) 2 (00:00) 8.3 3.61 (00:50) 2.5 (09:40) 0 0 0 0 0
24-12-2019 13.8 (16:10) 1.8 (00:00) 7.8 5.28 (15:20) 3.33 (16:00) 0 0 0 0 0
23-12-2019 14.1 (15:50) 5 (00:00) 9.6 13.61 (00:40) 7.5 (00:40) 0 0 0 0 0
22-12-2019 15.1 (14:50) 9.9 (00:00) 12.5 18.61 (05:10) 8.89 (01:20) 0 0 0 0 0
21-12-2019 17.1 (13:20) 8.7 (00:00) 12.9 19.72 (21:40) 11.11 (21:40) 3.6 0.2 0 2.2 1.2

Gráficas

Temp. máximas Temp. mínimas Temp. medias Precipitaciones Rachas de viento máximas Velocidades máximas media en intervalos de 10 minutos

Datos horarios

Fecha y hora oficial Temperatura (ºC) Velocidad del viento (km/h) Dirección del viento Racha (km/h) Dirección de racha Precipitación (mm) Presión (hPa) Tendencia (hPa) Humedad (%)
2020-01-19 23:00:00 6.7 12 Norte 19 Norte 0 989.2 1.1 28
2020-01-19 22:00:00 6.1 3 Norte 18 Nordeste 0 989.3 1.7 27
2020-01-19 21:00:00 6.8 10 Nordeste 22 Norte 0 988.7 1.7 24
2020-01-19 20:00:00 8.1 12 Nordeste 33 Nordeste 0 988.1 1.8 21
2020-01-19 19:00:00 8.7 15 Nordeste 42 Este 0 987.6 2.2 19
2020-01-19 18:00:00 9.5 16 Nordeste 39 Nordeste 0 987 1.7 16
2020-01-19 17:00:00 10.4 13 Nordeste 33 Nordeste 0 986.3 1.1 22
2020-01-19 16:00:00 10.9 17 Nordeste 32 Este 0 985.4 -0.2 23
2020-01-19 15:00:00 11.9 12 Nordeste 25 Nordeste 0 985.3 -0.8 28
2020-01-19 14:00:00 11.1 10 Nordeste 22 Este 0 985.2 -0.3 31
2020-01-19 13:00:00 10.1 6 Nordeste 18 Este 0 985.6 0.4 41
2020-01-19 12:00:00 9.7 8 Nordeste 19 Nordeste 0 986.1 1.3 46
2020-01-19 11:00:00 7.4 8 Norte 15 Nordeste 0 985.5 1 69
2020-01-19 10:00:00 6 2 Noroeste 6 Oeste 0 985.2 1 89
2020-01-19 09:00:00 5.4 3 Oeste 6 Oeste 0.2 984.8 0.5 91
2020-01-19 08:00:00 5.1 0 Calma 4 Oeste 0 984.5 0.2 90
2020-01-19 07:00:00 5.1 0 Calma 4 Norte 0 984.2 -0.7 89
2020-01-19 06:00:00 4.7 0 Calma 5 Sudoeste 0.2 984.3 -1 88
2020-01-19 05:00:00 4.7 0 Calma 5 Este 0 984.3 -1.2 88
2020-01-19 04:00:00 4.9 4 Nordeste 8 Nordeste 0 984.9 -0.9 79
2020-01-19 03:00:00 5.2 3 Este 8 Nordeste 0 985.3 -0.8 72
2020-01-19 02:00:00 5.1 3 Nordeste 12 Nordeste 0 985.5 -1 73
2020-01-19 01:00:00 5.1 7 Nordeste 12 Nordeste 0 985.8 -1.3 71
2020-01-19 00:00:00 5.1 5 Nordeste 9 Nordeste 0 986.1 -0.9 72
2020-01-18 23:00:00 5.9 3 Norte 13 Nordeste 0 986.5 -0.9 74
2020-01-18 22:00:00 6.6 6 Nordeste 11 Nordeste 0 987.1 -0.4 73
2020-01-18 21:00:00 7.7 3 Norte 7 Nordeste 0 987 -0.5 73
2020-01-18 20:00:00 8.4 3 Oeste 10 Oeste 0 987.4 -0.8 71
2020-01-18 19:00:00 9.3 4 Sudoeste 12 Sur 0 987.5 -1.6 68
2020-01-18 18:00:00 11.1 6 Sudeste 15 Sudoeste 0 987.5 -2.7 59
2020-01-18 17:00:00 13.4 6 Sur 10 Sudeste 0 988.2 -3.8 44
2020-01-18 16:00:00 13.2 8 Sur 13 Sudoeste 0 989.1 -4 43
2020-01-18 15:00:00 12.2 3 Este 10 Sur 0 990.2 -4.6 46
2020-01-18 14:00:00 10.4 3 Oeste 11 Oeste 0 992 -3.2 54
2020-01-18 13:00:00 8.7 4 Nordeste 18 Norte 0 993.1 -2.5 61
2020-01-18 12:00:00 7.1 8 Nordeste 16 Este 0 994.8 -1.4 64
2020-01-18 11:00:00 4.2 10 Este 17 Este 0 995.2 -0.4 74
2020-01-18 10:00:00 1.6 4 Oeste 10 Nordeste 0 995.6 -0.4 84
2020-01-18 09:00:00 1.1 7 Nordeste 12 Nordeste 0 996.2 1.2 85
2020-01-18 08:00:00 1.3 3 Nordeste 10 Nordeste 0 995.6 -0.1 84
2020-01-18 07:00:00 1.1 3 Nordeste 7 Nordeste 0 996 0.2 85
2020-01-18 06:00:00 0.7 2 Norte 11 Oeste 0 995 -0.8 87
2020-01-18 05:00:00 0.6 3 Nordeste 9 Norte 0 995.7 0.5 86
2020-01-18 04:00:00 0.6 8 Nordeste 13 Nordeste 0 995.8 0.8 86
2020-01-18 03:00:00 1.2 6 Nordeste 15 Este 0 995.8 1.1 86
2020-01-18 02:00:00 2.4 6 Nordeste 10 Norte 0 995.2 1.3 83
2020-01-18 01:00:00 4.1 4 Este 7 Este 0 995 1.1 78
2020-01-18 00:00:00 5.6 5 Sudoeste 10 Sudoeste 0 994.7 1.3 71
2020-01-17 23:00:00 6.8 3 Este 22 Oeste 0 993.9 1.2 66
2020-01-17 22:00:00 8.5 11 Sudoeste 20 Oeste 0 993.9 1.7 60
2020-01-17 21:00:00 9.7 9 Oeste 35 Noroeste 0 993.4 2.7 56
2020-01-17 20:00:00 10.3 17 Oeste 31 Noroeste 0 992.7 2.6 56
2020-01-17 19:00:00 11.4 15 Oeste 26 Noroeste 0 992.2 2.4 55
2020-01-17 18:00:00 12.4 14 Oeste 57 Noroeste 0 990.7 1 52
2020-01-17 17:00:00 13.6 18 Oeste 46 Oeste 0 990.1 0 54
2020-01-17 16:00:00 14 15 Oeste 40 Oeste 0 989.8 -0.7 52
2020-01-17 15:00:00 14.2 16 Oeste 32 Oeste 0 989.7 -1.6 51
2020-01-17 14:00:00 14.1 12 Oeste 28 Oeste 0 990.1 -1 55
2020-01-17 13:00:00 13.6 12 Oeste 35 Noroeste 0 990.5 -0.5 54
2020-01-17 12:00:00 10.3 10 Oeste 31 Noroeste 0 991.3 0.4 70
2020-01-17 11:00:00 4.3 3 Nordeste 11 Nordeste 0 991.1 0.4 96
2020-01-17 10:00:00 2.1 5 Nordeste 9 Este 0 991 0.6 97
2020-01-17 09:00:00 1.7 5 Nordeste 14 Nordeste 0 990.9 0.4 97
2020-01-17 08:00:00 2.2 7 Nordeste 13 Nordeste 0 990.7 -0.2 96
2020-01-17 07:00:00 2.6 0 Calma 10 Norte 0 990.4 -0.7 96
2020-01-17 06:00:00 3 5 Nordeste 9 Nordeste 0 990.5 -1.2 96
2020-01-17 05:00:00 3 3 Norte 8 Nordeste 0 990.9 -0.8 95
2020-01-17 04:00:00 3 5 Norte 8 Norte 0 991.1 -0.9 91
2020-01-17 03:00:00 3 3 Oeste 6 Norte 0 991.7 -0.5 87
2020-01-17 02:00:00 4.2 4 Norte 7 Norte 0 991.7 -0.3 88
2020-01-17 01:00:00 4.4 3 Nordeste 5 Norte 0 992 -0.1 92
2020-01-17 00:00:00 4 2 Nordeste 4 Nordeste 0 992.2 0.6 92
2020-01-16 23:00:00 5.1 3 Norte 5 Norte 0 992 0.6 90
2020-01-16 22:00:00 6.3 2 Nordeste 6 Norte 0 992.1 1.1 84
2020-01-16 21:00:00 7.7 3 Norte 7 Sudoeste 0 991.6 0.7 85
2020-01-16 20:00:00 10.1 7 Sudoeste 19 Sudoeste 0 991.4 0.7 76
2020-01-16 19:00:00 11.1 8 Sudoeste 19 Sur 0 991 0.3 72
2020-01-16 18:00:00 12.6 9 Sur 21 Sur 0 990.9 0.1 67
2020-01-16 17:00:00 14.3 8 Sur 22 Sur 0 990.7 -1.1 60
2020-01-16 16:00:00 14.7 9 Sur 19 Sudoeste 0 990.7 -2.4 56
2020-01-16 15:00:00 13.3 8 Sudoeste 15 Sur 0 990.8 -3.2 54
2020-01-16 14:00:00 9.5 3 Oeste 7 Oeste 0 991.8 -2.8 61
2020-01-16 13:00:00 7.1 3 Norte 7 Norte 0 993.1 -1.5 69
2020-01-16 12:00:00 4.3 3 Nordeste 6 Nordeste 0 994 -0.4 74
2020-01-16 11:00:00 1.8 4 Norte 7 Nordeste 0 994.6 0.2 82
2020-01-16 10:00:00 -0.3 2 Este 10 Nordeste 0 994.6 0.7 92
2020-01-16 09:00:00 -1.4 0 Calma 5 Nordeste 0 994.4 0.6 94
2020-01-16 08:00:00 -1.5 0 Calma 5 Nordeste 0 994.4 0.6 94
2020-01-16 07:00:00 -1.2 0 Calma 7 Nordeste 0 993.9 0.2 94
2020-01-16 06:00:00 -1 0 Calma 4 Noroeste 0 993.8 0.2 93
2020-01-16 05:00:00 -0.3 2 Nordeste 8 Norte 0 993.8 0.4 92
2020-01-16 04:00:00 -0.3 2 Nordeste 7 Norte 0 993.7 0.5 92
2020-01-16 03:00:00 0 3 Norte 8 Este 0 993.6 0.5 92
2020-01-16 02:00:00 0.6 3 Este 6 Este 0 993.4 0.6 90
2020-01-16 01:00:00 1.2 4 Norte 8 Norte 0 993.2 1 89
2020-01-16 00:00:00 2.2 3 Noroeste 5 Nordeste 0 993.1 1.1 86
2020-01-15 23:00:00 2.5 3 Norte 11 Nordeste 0 992.8 1.1 85
2020-01-15 22:00:00 3.9 7 Nordeste 10 Norte 0 992.2 1.5 82
2020-01-15 21:00:00 5.6 3 Norte 12 Nordeste 0 992 2.5 71
2020-01-15 20:00:00 6.9 4 Norte 9 Nordeste 0 991.7 2.9 67
2020-01-15 19:00:00 8.5 4 Norte 15 Oeste 0 990.7 2 63
2020-01-15 18:00:00 9.8 2 Nordeste 12 Oeste 0 989.5 1 60
2020-01-15 17:00:00 12.2 5 Oeste 12 Noroeste 0 988.8 -0.4 50
2020-01-15 16:00:00 11.9 3 Oeste 8 Noroeste 0 988.7 -1.1 52
2020-01-15 15:00:00 10.3 4 Nordeste 8 Norte 0 988.5 -2 57
2020-01-15 14:00:00 7.2 3 Norte 6 Oeste 0 989.2 -1.3 64
2020-01-15 13:00:00 4 3 Nordeste 8 Norte 0 989.8 -0.1 76
2020-01-15 12:00:00 2 5 Nordeste 8 Nordeste 0 990.5 0.9 81
2020-01-15 11:00:00 0.4 3 Norte 7 Oeste 0 990.5 1.4 83
2020-01-15 10:00:00 -1.4 3 Nordeste 7 Nordeste 0 989.9 1.2 90
2020-01-15 09:00:00 -2.8 0 Calma 5 Oeste 0 989.6 1.3 92
2020-01-15 08:00:00 -2.7 0 Calma 4 Noroeste 0 989.1 0.9 93
2020-01-15 07:00:00 -2.4 0 Calma 6 Oeste 0 988.7 0 92
2020-01-15 06:00:00 -2.3 0 Calma 5 Oeste 0 988.3 -0.2 92
2020-01-15 05:00:00 -2 3 Oeste 8 Nordeste 0 988.2 -0.1 90
2020-01-15 04:00:00 -1.2 3 Norte 8 Norte 0 988.7 0.3 89
2020-01-15 03:00:00 -1.4 0 Calma 5 Oeste 0 988.5 0.1 90
2020-01-15 02:00:00 -0.8 0 Calma 5 Norte 0 988.3 0.2 90
2020-01-15 01:00:00 -0.3 2 Nordeste 5 Norte 0 988.4 0.5 89
2020-01-15 00:00:00 0.5 3 Nordeste 8 Nordeste 0 988.4 0.6 87
2020-01-14 23:00:00 1.1 6 Nordeste 9 Norte 0 988.1 0.7 85
2020-01-14 22:00:00 2.5 3 Nordeste 7 Norte 0 987.9 1.1 81
2020-01-14 21:00:00 3.8 3 Nordeste 6 Oeste 0 987.8 1.6 77
2020-01-14 20:00:00 5.5 2 Oeste 9 Sudoeste 0 987.4 1.5 69
2020-01-14 19:00:00 7.1 2 Sudoeste 7 Sur 0 986.8 1 66
2020-01-14 18:00:00 10.1 4 Sur 7 Sur 0 986.2 0 53
2020-01-14 17:00:00 13 2 Sudoeste 10 Oeste 0 985.9 -1 40
2020-01-14 16:00:00 11.9 5 Nordeste 9 Nordeste 0 985.8 -1.9 45
2020-01-14 15:00:00 11.1 4 Nordeste 9 Nordeste 0 986.2 -2.2 49
2020-01-14 14:00:00 9.1 4 Nordeste 9 Nordeste 0 986.9 -1.6 54
2020-01-14 13:00:00 6.7 6 Nordeste 9 Nordeste 0 987.7 -0.4 62
2020-01-14 12:00:00 3.4 7 Nordeste 12 Nordeste 0 988.4 0.8 77
2020-01-14 11:00:00 0.6 8 Nordeste 13 Nordeste 0 988.5 1 84
2020-01-14 10:00:00 -1.2 6 Nordeste 9 Nordeste 0 988.1 0.8 91
2020-01-14 09:00:00 -2.8 2 Noroeste 6 Nordeste 0 987.6 0.9 93
2020-01-14 08:00:00 -2.7 3 Norte 7 Nordeste 0 987.5 0.9 94
2020-01-14 07:00:00 -2.5 3 Norte 4 Noroeste 0 987.3 0.7 94
2020-01-14 06:00:00 -2.4 2 Norte 7 Nordeste 0 986.7 0.2 94
2020-01-14 05:00:00 -2.2 3 Noroeste 10 Nordeste 0 986.6 -0.1 94
2020-01-14 04:00:00 -1.9 5 Nordeste 8 Norte 0 986.6 -1.1 94
2020-01-14 03:00:00 -1.5 4 Nordeste 7 Nordeste 0 986.5 -0.9 93
2020-01-14 02:00:00 -1.2 2 Norte 9 Nordeste 0 986.7 -0.7 93
2020-01-14 01:00:00 -0.7 3 Nordeste 7 Nordeste 0 987.7 0.1 92
2020-01-14 00:00:00 0.4 3 Nordeste 9 Nordeste 0 987.4 -0.1 91
2020-01-13 23:00:00 1 0 Calma 6 Nordeste 0 987.4 -0.1 91
2020-01-13 22:00:00 2.3 3 Nordeste 6 Nordeste 0 987.6 0 87
2020-01-13 21:00:00 3.6 3 Este 8 Nordeste 0 987.5 0.2 84
2020-01-13 20:00:00 5 2 Oeste 7 Sur 0 987.5 0 76
2020-01-13 19:00:00 5.9 2 Sur 4 Oeste 0 987.6 0.1 72
2020-01-13 18:00:00 7.1 0 Calma 4 Oeste 0 987.3 -0.7 64
2020-01-13 17:00:00 8.7 3 Oeste 5 Oeste 0 987.5 -1.4 58
2020-01-13 16:00:00 9.3 3 Nordeste 9 Norte 0 987.5 -2.8 52
2020-01-13 15:00:00 8.5 5 Nordeste 9 Nordeste 0 988 -3.3 51
2020-01-13 14:00:00 7.1 5 Nordeste 9 Nordeste 0 988.9 -2.7 56
2020-01-13 13:00:00 5.2 2 Sudoeste 6 Nordeste 0 990.3 -1.1 62
2020-01-13 12:00:00 2.3 4 Nordeste 9 Nordeste 0 991.3 0 75
2020-01-13 11:00:00 0.1 4 Oeste 8 Norte 0 991.6 0 81
2020-01-13 10:00:00 -1.7 4 Norte 8 Norte 0 991.4 -0.1 91
2020-01-13 09:00:00 -3 6 Nordeste 11 Nordeste 0 991.3 -0.4 91
2020-01-13 08:00:00 -3 6 Nordeste 10 Nordeste 0 991.6 -0.5 93
2020-01-13 07:00:00 -2.8 3 Nordeste 9 Nordeste 0 991.5 -1.5 94
2020-01-13 06:00:00 -2.5 6 Nordeste 10 Nordeste 0 991.7 -1.2 94
2020-01-13 05:00:00 -2.2 3 Norte 11 Este 0 992.1 -1.2 93
2020-01-13 04:00:00 -1.7 3 Nordeste 8 Norte 0 993 -1 93
2020-01-13 03:00:00 -1.7 4 Nordeste 8 Norte 0 992.9 -1.7 94
2020-01-13 02:00:00 -1.1 5 Nordeste 9 Nordeste 0 993.3 -1.6 93
2020-01-13 01:00:00 -0.4 5 Nordeste 8 Nordeste 0 994 -1 92
2020-01-13 00:00:00 0.1 2 Noroeste 9 Nordeste 0 994.6 -0.3 91
2020-01-12 23:00:00 0.6 6 Norte 9 Nordeste 0 994.9 -0.1 91
2020-01-12 22:00:00 1.7 5 Nordeste 9 Nordeste 0 995 0.7 88
2020-01-12 21:00:00 3.5 0 Calma 5 Nordeste 0 994.9 0.9 83
2020-01-12 20:00:00 5.1 4 Nordeste 14 Oeste 0 995 1.2 76
2020-01-12 19:00:00 7.7 10 Noroeste 18 Noroeste 0 994.3 0.5 62
2020-01-12 18:00:00 8.8 8 Oeste 14 Noroeste 0 994 0 65
2020-01-12 17:00:00 10.2 4 Nordeste 7 Norte 0 993.8 -1.1 54
2020-01-12 16:00:00 10.2 4 Nordeste 9 Nordeste 0 993.8 -2 52
2020-01-12 15:00:00 9.1 3 Nordeste 7 Nordeste 0 994 -2.7 54
2020-01-12 14:00:00 7.1 4 Nordeste 8 Nordeste 0 994.9 -1.9 64
2020-01-12 13:00:00 4.6 4 Nordeste 8 Noroeste 0 995.8 -0.7 69
2020-01-12 12:00:00 2.3 3 Oeste 7 Oeste 0 996.7 0.6 77
2020-01-12 11:00:00 0.2 4 Este 8 Este 0 996.8 1 82
2020-01-12 10:00:00 -1.9 4 Nordeste 6 Nordeste 0 996.5 1.1 93
2020-01-12 09:00:00 -3.1 4 Nordeste 7 Este 0 996.1 1 94
2020-01-12 08:00:00 -3.2 3 Nordeste 7 Nordeste 0 995.8 0.8 95
2020-01-12 07:00:00 -2.8 0 Calma 7 Nordeste 0 995.4 0 95
2020-01-12 06:00:00 -2.7 2 Nordeste 5 Noroeste 0 995.1 -0.4 95
2020-01-12 05:00:00 -2.4 3 Nordeste 6 Norte 0 995 -0.4 95
2020-01-12 04:00:00 -1.7 6 Nordeste 9 Nordeste 0 995.4 -0.2 95
2020-01-12 03:00:00 -1.5 3 Norte 7 Norte 0 995.5 -0.5 95
2020-01-12 02:00:00 -1.1 3 Nordeste 6 Nordeste 0 995.4 -0.5 94
2020-01-12 01:00:00 -1 0 Calma 8 Noroeste 0 995.6 -0.2 92
2020-01-12 00:00:00 -0.1 3 Norte 8 Nordeste 0 996 0.1 93
2020-01-11 23:00:00 0.5 4 Nordeste 7 Nordeste 0 995.9 0.3 92
2020-01-11 22:00:00 1.1 2 Nordeste 5 Norte 0 995.8 0.8 91
2020-01-11 21:00:00 2.3 0 Calma 6 Noroeste 0 995.9 1.1 85
2020-01-11 20:00:00 3.3 2 Norte 5 Nordeste 0 995.6 0.8 84
2020-01-11 19:00:00 4.5 4 Sudoeste 11 Oeste 0 995 0.1 77
2020-01-11 18:00:00 5.8 5 Oeste 14 Oeste 0 994.8 -0.1 70
2020-01-11 17:00:00 7.7 9 Oeste 14 Oeste 0 994.8 -0.8 65
2020-01-11 16:00:00 8.1 5 Oeste 12 Oeste 0 994.9 -1.6 65
2020-01-11 15:00:00 7.5 6 Noroeste 16 Noroeste 0 994.9 -2.1 68
2020-01-11 14:00:00 6.8 5 Nordeste 14 Norte 0 995.6 -1.3 70
2020-01-11 13:00:00 5.7 6 Nordeste 13 Este 0 996.5 0.2 73
2020-01-11 12:00:00 4.9 7 Nordeste 15 Este 0 997 1.1 78
2020-01-11 11:00:00 4 8 Nordeste 15 Nordeste 0 996.9 1.5 80
2020-01-11 10:00:00 3.5 10 Nordeste 17 Este 0 996.3 1.2 84
2020-01-11 09:00:00 3.7 9 Nordeste 15 Nordeste 0 995.9 1 87
2020-01-11 08:00:00 4.1 6 Nordeste 10 Nordeste 0 995.4 0.5 89
2020-01-11 07:00:00 4.2 3 Norte 10 Nordeste 0 995.1 -0.1 88
2020-01-11 06:00:00 4.3 3 Norte 11 Nordeste 0 994.9 0.2 88
2020-01-11 05:00:00 4.4 8 Nordeste 14 Nordeste 0 994.9 0.4 87
2020-01-11 04:00:00 4.6 9 Nordeste 14 Nordeste 0 995.2 0.3 87
2020-01-11 03:00:00 4.3 3 Noroeste 7 Noroeste 0 994.7 0.3 90
2020-01-11 02:00:00 4.2 2 Nordeste 7 Norte 0 994.5 0.3 90
2020-01-11 01:00:00 3.8 3 Norte 5 Oeste 0 994.9 1.3 92
2020-01-11 00:00:00 3.7 3 Nordeste 6 Oeste 0 994.4 1.2 93
2020-01-10 23:00:00 4.3 3 Nordeste 5 Nordeste 0 994.2 1.3 93
2020-01-10 22:00:00 4.4 3 Norte 5 Oeste 0 993.6 1.2 91
2020-01-10 21:00:00 5.6 3 Este 9 Este 0 993.2 1.3 89
2020-01-10 20:00:00 5.4 7 Este 12 Nordeste 0 992.9 1.4 89
2020-01-10 19:00:00 6.4 5 Norte 21 Oeste 0 992.4 1.2 83
2020-01-10 18:00:00 6.9 10 Noroeste 28 Noroeste 0 991.9 1.2 81
2020-01-10 17:00:00 7.9 12 Oeste 36 Noroeste 0 991.5 0.9 78
2020-01-10 16:00:00 8.2 13 Oeste 26 Oeste 0 991.2 0.2 79
2020-01-10 15:00:00 9.7 4 Norte 16 Nordeste 0 990.7 -1.5 79
2020-01-10 14:00:00 9 11 Este 18 Este 0 990.6 -1.2 85
2020-01-10 13:00:00 7.5 2 Norte 10 Oeste 0.8 991 0.1 92
2020-01-10 12:00:00 6.1 3 Norte 18 Sudoeste 1.2 992.2 1.8 94
2020-01-10 11:00:00 5.5 5 Sur 8 Oeste 1.2 991.8 1.8 94
2020-01-10 10:00:00 5.3 3 Norte 8 Oeste 0.2 990.9 1.3 94
2020-01-10 09:00:00 5 3 Nordeste 8 Nordeste 0.4 990.4 1.3 94
2020-01-10 08:00:00 5 3 Nordeste 4 Nordeste 1.2 990 0.9 94
2020-01-10 07:00:00 4.7 0 Calma 11 Este 1.8 989.6 0.1 93
2020-01-10 06:00:00 4.7 2 Nordeste 7 Noroeste 0.2 989.1 -0.1 92
2020-01-10 05:00:00 4.6 3 Sudoeste 6 Nordeste 0 989.1 -0.1 90
2020-01-10 04:00:00 4.5 4 Nordeste 10 Nordeste 0 989.5 0.5 92
2020-01-10 03:00:00 3.7 5 Norte 9 Nordeste 0 989.2 0.1 92
2020-01-10 02:00:00 3.5 4 Nordeste 7 Este 0 989.2 -0.2 92
2020-01-10 01:00:00 4 4 Nordeste 6 Nordeste 0 989 -0.3 92
2020-01-10 00:00:00 5.1 2 Oeste 6 Oeste 0 989.1 -0.5 89
2020-01-09 23:00:00 5.7 4 Nordeste 9 Sur 0 989.4 -0.8 90
2020-01-09 22:00:00 7.3 4 Sur 14 Sudoeste 0 989.3 0 89
2020-01-09 21:00:00 8 9 Sur 16 Sur 0 989.6 0.6 87
2020-01-09 20:00:00 8.7 6 Sur 13 Sur 0 990.2 0.9 84
2020-01-09 19:00:00 9.9 9 Sur 19 Sur 0 989.3 -0.5 80
2020-01-09 18:00:00 11 9 Sur 18 Sur 0 989 -1.3 75
2020-01-09 17:00:00 12.8 10 Sur 19 Sur 0 989.3 -1.9 67
2020-01-09 16:00:00 13.5 9 Sur 18 Sur 0 989.8 -2.8 67
2020-01-09 15:00:00 12.5 9 Sur 17 Sur 0 990.3 -3.4 66
2020-01-09 14:00:00 10.5 4 Sudoeste 9 Sudoeste 0 991.2 -3.1 67
2020-01-09 13:00:00 7.4 0 Calma 7 Oeste 0 992.6 -1.4 74
2020-01-09 12:00:00 4.1 2 Noroeste 6 Nordeste 0 993.7 -0.1 84
2020-01-09 11:00:00 2 4 Nordeste 6 Norte 0 994.3 0.4 88
2020-01-09 10:00:00 0.6 3 Nordeste 5 Nordeste 0 994 0 96
2020-01-09 09:00:00 -0.5 0 Calma 5 Norte 0 993.8 -0.4 96
2020-01-09 08:00:00 -0.4 4 Nordeste 7 Nordeste 0 993.9 -0.6 95
2020-01-09 07:00:00 0 5 Nordeste 8 Norte 0 994 -1.1 95
2020-01-09 06:00:00 0.7 3 Norte 5 Norte 0 994.2 -1.2 95
2020-01-09 05:00:00 0.6 3 Nordeste 4 Norte 0 994.5 -0.9 95
2020-01-09 04:00:00 1.2 3 Norte 5 Nordeste 0 995.1 -0.6 95
2020-01-09 03:00:00 1.9 4 Nordeste 5 Nordeste 0 995.4 -0.7 94
2020-01-09 02:00:00 2.3 0 Calma 5 Oeste 0 995.4 -0.7 93
2020-01-09 01:00:00 3.3 3 Oeste 7 Nordeste 0 995.7 -0.6 91
2020-01-09 00:00:00 3.8 5 Nordeste 8 Norte 0 996.1 0.2 91
2020-01-08 23:00:00 4.5 4 Nordeste 7 Nordeste 0 996.1 0.3 89
2020-01-08 22:00:00 5.6 5 Nordeste 8 Norte 0 996.3 0.8 87
2020-01-08 21:00:00 6.8 4 Nordeste 7 Nordeste 0 995.9 0.8 84
2020-01-08 20:00:00 8.1 2 Norte 8 Sudoeste 0 995.8 0.9 81
2020-01-08 19:00:00 9.8 4 Oeste 12 Sudoeste 0 995.5 0.6 71
2020-01-08 18:00:00 12.1 5 Sudoeste 10 Sudoeste 0 995.1 0.1 62
2020-01-08 17:00:00 15.1 2 Sur 7 Sur 0 994.9 -0.7 50
2020-01-08 16:00:00 14.8 3 Sur 8 Oeste 0 994.9 -1.5 52
2020-01-08 15:00:00 13.3 3 Sur 8 Oeste 0 995 -2.4 55
2020-01-08 14:00:00 10.8 4 Sudoeste 9 Oeste 0 995.6 -2.3 55
2020-01-08 13:00:00 8 3 Norte 7 Noroeste 0 996.4 -1.1 63
2020-01-08 12:00:00 4.8 4 Nordeste 8 Nordeste 0 997.4 0.8 74
2020-01-08 11:00:00 2.5 2 Noroeste 6 Nordeste 0 997.9 2.1 82
2020-01-08 10:00:00 -0.1 4 Nordeste 8 Nordeste 0 997.5 2.4 93
2020-01-08 09:00:00 -1.6 2 Noroeste 9 Nordeste 0 996.6 2 95
2020-01-08 08:00:00 -1.1 5 Nordeste 8 Nordeste 0 995.8 1.4 95
2020-01-08 07:00:00 -1.3 4 Nordeste 7 Norte 0 995.1 0.4 95
2020-01-08 06:00:00 -0.9 0 Calma 6 Nordeste 0 994.6 0.2 95
2020-01-08 05:00:00 -0.4 0 Calma 4 Norte 0 994.4 0.2 95
2020-01-08 04:00:00 -0.3 2 Norte 7 Norte 0 994.7 0.5 94
2020-01-08 03:00:00 0 4 Nordeste 8 Nordeste 0 994.4 -0.2 94
2020-01-08 02:00:00 0.4 3 Nordeste 7 Norte 0 994.2 -0.1 93
2020-01-08 01:00:00 0.8 3 Nordeste 5 Oeste 0 994.2 -0.3 92
2020-01-08 00:00:00 1.7 2 Este 8 Norte 0 994.6 0 89
2020-01-07 23:00:00 2.1 2 Noroeste 8 Nordeste 0 994.3 -0.4 86
2020-01-07 22:00:00 2.7 2 Norte 6 Norte 0 994.5 0.1 84
2020-01-07 21:00:00 2.7 2 Noroeste 5 Nordeste 0 994.6 0.6 83
2020-01-07 20:00:00 3.3 3 Oeste 5 Oeste 0 994.7 0.9 81
2020-01-07 19:00:00 4.2 4 Oeste 11 Oeste 0 994.4 0.7 76
2020-01-07 18:00:00 5.7 6 Oeste 12 Oeste 0 994 -0.1 71
2020-01-07 17:00:00 8.6 6 Oeste 14 Sudoeste 0 993.8 -0.9 62
2020-01-07 16:00:00 9.9 8 Oeste 14 Oeste 0 993.7 -2.2 58
2020-01-07 15:00:00 9.8 9 Oeste 16 Oeste 0 994.1 -2.4 56
2020-01-07 14:00:00 9 3 Oeste 9 Oeste 0 994.7 -2.5 61
2020-01-07 13:00:00 6.8 3 Oeste 10 Nordeste 0 995.9 -1.2 68
2020-01-07 12:00:00 3.9 6 Nordeste 9 Norte 0 996.5 -0.2 77
2020-01-07 11:00:00 1.9 5 Nordeste 11 Nordeste 0 997.2 1.1 83
2020-01-07 10:00:00 -0.2 3 Nordeste 9 Este 0 997.1 0.9 93
2020-01-07 09:00:00 -1.7 5 Nordeste 8 Nordeste 0 996.7 0.7 94
2020-01-07 08:00:00 -1.7 3 Nordeste 6 Nordeste 0 996.1 -0.2 95
2020-01-07 07:00:00 -1.5 4 Norte 10 Nordeste 0 996.2 -0.2 95
2020-01-07 06:00:00 -1.3 5 Nordeste 8 Nordeste 0 996 -0.5 95
2020-01-07 05:00:00 -0.8 3 Norte 7 Nordeste 0 996.3 -0.1 94
2020-01-07 04:00:00 -0.5 3 Sudoeste 6 Nordeste 0 996.4 0.2 93
2020-01-07 03:00:00 0.1 3 Norte 6 Noroeste 0 996.5 0.4 93
2020-01-07 02:00:00 0.6 4 Norte 7 Norte 0 996.4 1 92
2020-01-07 01:00:00 0.8 3 Oeste 7 Oeste 0 996.2 1.2 92
2020-01-07 00:00:00 1.5 3 Nordeste 6 Nordeste 0 996.1 1.5 92
2020-01-06 23:00:00 2 3 Norte 5 Nordeste 0 995.4 1.3 91
2020-01-06 22:00:00 2.9 3 Nordeste 6 Norte 0 995 1.3 89
2020-01-06 21:00:00 4.4 3 Nordeste 6 Norte 0 994.6 1.5 84
2020-01-06 20:00:00 5.4 3 Norte 7 Sudoeste 0 994.1 1.3 84
2020-01-06 19:00:00 7 3 Oeste 6 Sudoeste 0 993.7 1 77
2020-01-06 18:00:00 9.2 3 Oeste 5 Oeste 0 993.1 0.4 66
2020-01-06 17:00:00 12.6 4 Oeste 9 Nordeste 0 992.8 -0.7 53
2020-01-06 16:00:00 12 5 Nordeste 8 Nordeste 0 992.7 -1.9 56
2020-01-06 15:00:00 11.3 3 Oeste 8 Nordeste 0 992.7 -2.9 54
2020-01-06 14:00:00 8.4 4 Nordeste 8 Este 0 993.5 -2.6 62
2020-01-06 13:00:00 6.1 3 Norte 6 Norte 0 994.6 -1.4 71
2020-01-06 12:00:00 3.6 3 Nordeste 6 Nordeste 0 995.6 0.2 80
2020-01-06 11:00:00 1.5 3 Nordeste 7 Norte 0 996.1 0.9 85
2020-01-06 10:00:00 -0.7 3 Nordeste 6 Nordeste 0 996 1 95